Terminal Aerodrome Forecast
Issued by NWS Huntsville, AL

Home | Current Version | Previous Version | Text Only | Print | Product List | Glossary On
Versions: 1 2 3 4 5 6 7 8 9 10 11 12 13 14
000
FTUS44 KHUN 251720
TAFMSL
TAF
KMSL 251720Z 2518/2618 VRB03KT P6SM SCT030
     FM252100 VRB04KT P6SM BKN040
     FM260200 VRB02KT P6SM SCT250
      TEMPO 2610/2613 5SM BR
     FM261300 VRB03KT P6SM SCT030 SCT250=

USA.gov is the U.S. government's official web portal to all federal, state and local government web resources and services.